Time;durP1;ratioP1;P1;durP2;ratioP2;P2;SDS_P1;SDS_P2;PMS_P1;PMS_P2;Temp;Humidity;BMP_temperature;BMP_pressure;BME280_temperature;BME280_humidity;BME280_pressure;Samples;Min_cycle;Max_cycle;Signal;HPM_P1;HPM_P2
2023/03/03 00:00:40;;;;;;;;;53.25;42.00;;;;;8.45;48.46;101660.94;5111498;27;47247;-71
2023/03/03 00:03:08;;;;;;;;;49.75;39.50;;;;;8.41;48.27;101650.91;5121259;27;45857;-72
2023/03/03 00:05:34;;;;;;;;;50.50;38.00;;;;;8.46;48.46;101661.00;5124388;27;45165;-71
2023/03/03 00:08:00;;;;;;;;;51.50;39.25;;;;;8.41;48.48;101645.56;5100815;27;45328;-71
2023/03/03 00:10:26;;;;;;;;;50.75;41.00;;;;;8.41;47.98;101643.81;5114757;27;45537;-72
2023/03/03 00:12:52;;;;;;;;;51.00;42.25;;;;;8.32;47.81;101634.50;5120128;27;45025;-71
2023/03/03 00:15:21;;;;;;;;;56.00;42.75;;;;;8.43;48.27;101651.91;5122536;27;45202;-72
2023/03/03 00:17:47;;;;;;;;;57.50;43.25;;;;;8.39;47.78;101650.81;5117979;27;45076;-71
2023/03/03 00:20:25;;;;;;;;;53.50;39.50;;;;;8.42;48.20;101664.28;5126481;27;45747;-72
2023/03/03 00:22:50;;;;;;;;;47.00;36.50;;;;;8.27;47.51;101636.91;5119410;27;44938;-71
2023/03/03 00:25:33;;;;;;;;;53.75;40.00;;;;;8.39;48.31;101664.13;5117551;27;45670;-72
2023/03/03 00:28:21;;;;;;;;;40.00;31.50;;;;;8.38;47.38;101664.06;5115120;27;45182;-72
2023/03/03 00:30:46;;;;;;;;;45.75;36.75;;;;;8.35;47.57;101664.84;5115777;27;45498;-70
2023/03/03 00:33:26;;;;;;;;;53.50;41.00;;;;;8.32;47.51;101669.09;5116952;27;45063;-72
2023/03/03 00:35:52;;;;;;;;;50.75;43.50;;;;;8.32;47.58;101664.69;5123655;27;45030;-72
2023/03/03 00:38:18;;;;;;;;;50.75;39.00;;;;;8.29;48.00;101656.53;5115224;27;45139;-72
2023/03/03 00:40:45;;;;;;;;;43.50;35.50;;;;;8.20;47.97;101646.34;5112426;27;47576;-71
2023/03/03 00:43:22;;;;;;;;;46.75;37.50;;;;;8.26;48.49;101653.72;5120318;27;45056;-72
2023/03/03 00:45:52;;;;;;;;;50.50;35.75;;;;;8.34;47.63;101663.00;5121317;27;45059;-72
2023/03/03 00:48:30;;;;;;;;;51.00;41.50;;;;;8.28;48.00;101670.66;5107858;27;45210;-73
2023/03/03 00:50:58;;;;;;;;;51.25;38.50;;;;;8.26;48.31;101662.59;5117011;27;46135;-71
2023/03/03 00:53:26;;;;;;;;;46.25;37.25;;;;;8.17;47.79;101650.63;5107238;27;45203;-71
2023/03/03 00:55:52;;;;;;;;;50.75;36.25;;;;;8.14;49.21;101667.31;5118776;27;45208;-71
2023/03/03 00:58:20;;;;;;;;;50.25;37.50;;;;;8.10;48.99;101667.97;5104126;27;45291;-72
2023/03/03 01:00:51;;;;;;;;;51.25;37.25;;;;;8.05;48.92;101659.78;5119023;27;45760;-72
2023/03/03 01:03:20;;;;;;;;;49.75;39.50;;;;;8.05;48.52;101662.47;5120517;27;45069;-72
2023/03/03 01:05:46;;;;;;;;;60.25;42.50;;;;;7.92;48.71;101636.97;5115168;27;44909;-72
2023/03/03 01:08:12;;;;;;;;;55.25;41.75;;;;;7.97;48.54;101658.47;5119809;27;45128;-72
2023/03/03 01:10:50;;;;;;;;;57.00;45.75;;;;;8.02;49.23;101664.97;5127932;27;45386;-72
2023/03/03 01:13:17;;;;;;;;;58.75;41.25;;;;;8.02;49.00;101667.63;5119125;27;45219;-72
2023/03/03 01:15:43;;;;;;;;;56.75;40.50;;;;;7.99;49.26;101664.78;5120589;27;45481;-71
2023/03/03 01:18:10;;;;;;;;;47.75;39.00;;;;;7.84;49.73;101646.28;5122068;27;45079;-72
2023/03/03 01:20:36;;;;;;;;;51.50;37.50;;;;;7.97;49.43;101663.81;5116153;27;45770;-73
2023/03/03 01:23:02;;;;;;;;;52.50;39.00;;;;;7.96;49.40;101666.38;5119232;27;45203;-71
2023/03/03 01:25:28;;;;;;;;;42.25;35.75;;;;;7.94;49.69;101668.97;5123198;27;45009;-72
2023/03/03 01:27:53;;;;;;;;;46.75;37.75;;;;;7.92;49.29;101676.88;5118561;27;45168;-72
2023/03/03 01:30:19;;;;;;;;;56.75;37.75;;;;;7.88;49.60;101676.63;5113596;27;45736;-70
2023/03/03 01:32:44;;;;;;;;;50.50;38.50;;;;;7.78;49.85;101669.00;5114206;27;45045;-71
2023/03/03 01:35:10;;;;;;;;;48.00;40.00;;;;;7.84;49.63;101675.56;5115886;27;45221;-70
2023/03/03 01:37:35;;;;;;;;;51.00;39.75;;;;;7.72;50.16;101670.50;5112361;27;45101;-71
2023/03/03 01:40:02;;;;;;;;;46.25;36.75;;;;;7.77;50.24;101678.75;5117862;27;45459;-71
2023/03/03 01:42:28;;;;;;;;;50.75;37.50;;;;;7.73;49.81;101667.00;5117431;27;46181;-70
2023/03/03 01:45:17;;;;;;;;;50.00;38.00;;;;;7.75;49.50;101670.69;5124434;27;45059;-73
2023/03/03 01:48:26;;;;;;;;;49.00;38.25;;;;;7.71;49.75;101666.00;5114788;27;45001;-72
2023/03/03 01:50:56;;;;;;;;;52.00;37.00;;;;;7.70;49.62;101665.94;5110333;27;45280;-72
2023/03/03 01:53:41;;;;;;;;;40.25;35.00;;;;;7.72;49.65;101659.88;5121569;27;45306;-72
2023/03/03 01:56:07;;;;;;;;;54.25;38.50;;;;;7.77;49.63;101656.53;5106309;27;45197;-71
2023/03/03 01:58:43;;;;;;;;;38.25;28.50;;;;;7.79;50.38;101662.81;5114402;27;45201;-71
2023/03/03 02:01:13;;;;;;;;;50.25;38.50;;;;;7.79;49.62;101665.47;5114338;27;45221;-71
2023/03/03 02:03:40;;;;;;;;;44.00;36.50;;;;;7.76;49.85;101658.28;5110441;27;45220;-73
2023/03/03 02:06:11;;;;;;;;;42.75;38.00;;;;;7.69;49.77;101638.44;5120450;27;44960;-72
2023/03/03 02:09:01;;;;;;;;;38.75;35.50;;;;;7.80;49.82;101662.91;5118100;27;45034;-72
2023/03/03 02:11:31;;;;;;;;;47.00;39.00;;;;;7.74;49.88;101663.50;5079571;27;45237;-72
2023/03/03 02:13:56;;;;;;;;;40.25;37.25;;;;;7.69;49.73;101661.47;5116158;27;45197;-71
2023/03/03 02:16:22;;;;;;;;;42.25;36.25;;;;;7.37;50.28;101608.41;5116688;27;45188;-71
2023/03/03 02:18:47;;;;;;;;;47.25;37.00;;;;;7.64;50.23;101653.22;5119138;27;45055;-72
2023/03/03 02:21:20;;;;;;;;;47.75;39.25;;;;;7.63;50.55;101656.72;5122309;27;45786;-73
2023/03/03 02:24:04;;;;;;;;;51.75;40.50;;;;;7.63;50.60;101658.47;5120912;27;45174;-72
2023/03/03 02:26:34;;;;;;;;;47.00;37.75;;;;;7.64;50.48;101652.28;5114408;27;45075;-72
2023/03/03 02:29:00;;;;;;;;;43.50;34.75;;;;;7.61;50.05;101657.47;5118056;27;45670;-71
2023/03/03 02:31:27;;;;;;;;;55.50;38.00;;;;;7.61;50.61;101653.06;5115824;27;45710;-72
2023/03/03 02:33:54;;;;;;;;;47.75;37.00;;;;;7.62;50.82;101653.97;5106336;27;45181;-72
2023/03/03 02:36:36;;;;;;;;;43.75;34.75;;;;;7.53;50.24;101639.34;5120641;27;45235;-72
2023/03/03 02:39:21;;;;;;;;;46.50;39.00;;;;;7.63;50.39;101654.06;5119970;27;44960;-71
2023/03/03 02:42:01;;;;;;;;;44.25;37.00;;;;;7.62;50.35;101653.97;5116740;27;46281;-70
2023/03/03 02:44:30;;;;;;;;;33.50;29.75;;;;;7.62;50.42;101651.31;5119599;27;45071;-71
2023/03/03 02:46:56;;;;;;;;;46.25;39.50;;;;;7.62;50.60;101653.97;5117980;27;45144;-72
2023/03/03 02:49:24;;;;;;;;;50.75;39.50;;;;;7.59;50.76;101654.75;5124337;27;45010;-72
2023/03/03 02:51:50;;;;;;;;;38.75;33.50;;;;;7.56;50.83;101659.88;5114970;27;45101;-71
2023/03/03 02:54:19;;;;;;;;;46.00;37.00;;;;;7.48;50.60;101640.84;5120028;27;45024;-71
2023/03/03 02:56:45;;;;;;;;;55.00;40.50;;;;;7.61;50.85;101657.47;5116552;27;45064;-72
2023/03/03 02:59:10;;;;;;;;;55.25;42.00;;;;;7.48;50.79;101647.94;5119659;27;45152;-72
2023/03/03 03:01:36;;;;;;;;;45.75;39.00;;;;;7.45;51.13;101646.00;5124995;27;45469;-72
2023/03/03 03:04:09;;;;;;;;;44.00;38.25;;;;;7.48;51.35;101653.25;5118145;27;45019;-72
2023/03/03 03:06:35;;;;;;;;;43.50;38.25;;;;;7.47;51.39;101654.06;5113613;27;45294;-73
2023/03/03 03:09:00;;;;;;;;;53.00;40.75;;;;;7.38;51.27;101643.88;5113956;27;44954;-71
2023/03/03 03:11:26;;;;;;;;;39.00;34.50;;;;;7.42;51.54;101656.47;5113063;27;45664;-72
2023/03/03 03:13:51;;;;;;;;;55.25;40.00;;;;;7.37;51.55;101642.03;5112377;27;45153;-72
2023/03/03 03:16:17;;;;;;;;;54.75;41.25;;;;;7.43;51.75;101647.69;5118285;27;45228;-70
2023/03/03 03:18:43;;;;;;;;;52.50;38.75;;;;;7.41;51.23;101651.06;5115561;27;45209;-72
2023/03/03 03:21:11;;;;;;;;;56.25;40.25;;;;;7.32;52.11;101651.50;5113566;27;45735;-72
2023/03/03 03:23:37;;;;;;;;;51.25;40.50;;;;;7.25;51.96;101658.22;5116752;27;45007;-71
2023/03/03 03:26:02;;;;;;;;;47.75;41.00;;;;;7.18;51.90;101654.31;5110652;27;45199;-70
2023/03/03 03:28:27;;;;;;;;;51.25;41.25;;;;;7.15;52.66;101658.56;5117576;27;44856;-71
2023/03/03 03:30:53;;;;;;;;;58.75;41.00;;;;;7.12;52.71;101655.72;5112110;27;45434;-72
2023/03/03 03:33:18;;;;;;;;;44.25;38.50;;;;;7.15;52.61;101647.94;5123756;27;44988;-71
2023/03/03 03:35:45;;;;;;;;;55.50;42.75;;;;;6.85;52.98;101601.97;5118241;27;45772;-71
2023/03/03 03:38:12;;;;;;;;;45.50;37.25;;;;;7.13;52.68;101647.84;5116309;27;45079;-72
2023/03/03 03:40:37;;;;;;;;;56.75;38.25;;;;;7.14;52.90;101649.69;5101689;27;46970;-72
2023/03/03 03:43:02;;;;;;;;;53.00;37.50;;;;;7.17;53.00;101659.56;5121656;27;44860;-70
2023/03/03 03:45:28;;;;;;;;;51.25;38.00;;;;;7.11;53.31;101665.47;5120483;27;45069;-72
2023/03/03 03:47:54;;;;;;;;;48.75;38.50;;;;;7.14;52.83;101665.63;5122192;27;44997;-72
2023/03/03 03:50:19;;;;;;;;;49.25;39.50;;;;;7.14;53.55;101675.31;5116950;27;45583;-72
2023/03/03 03:52:45;;;;;;;;;50.25;41.25;;;;;7.06;53.38;101661.63;5115709;27;45026;-71
2023/03/03 03:55:10;;;;;;;;;63.75;49.75;;;;;7.11;53.52;101675.16;5116973;27;45003;-71
2023/03/03 03:57:35;;;;;;;;;66.75;49.00;;;;;7.10;53.65;101676.91;5112290;27;45268;-72
2023/03/03 04:00:01;;;;;;;;;65.75;52.00;;;;;7.09;53.59;101679.47;5114582;27;55966;-72
2023/03/03 04:02:26;;;;;;;;;73.50;53.75;;;;;7.12;53.79;101679.66;5103412;27;45093;-71
2023/03/03 04:04:51;;;;;;;;;78.50;55.25;;;;;7.10;53.89;101676.91;5115771;27;45071;-72
2023/03/03 04:07:17;;;;;;;;;76.50;57.25;;;;;7.08;53.76;101681.22;5117723;27;45149;-72
2023/03/03 04:09:42;;;;;;;;;70.25;54.75;;;;;7.08;54.11;101681.22;5115545;27;45234;-73
2023/03/03 04:12:07;;;;;;;;;70.75;51.75;;;;;7.05;54.03;101680.16;5116556;27;53714;-72
2023/03/03 04:14:33;;;;;;;;;56.00;43.75;;;;;7.09;54.24;101679.47;5112331;27;45427;-72
2023/03/03 04:16:58;;;;;;;;;52.25;39.50;;;;;7.04;54.57;101671.25;5124950;27;45122;-72
2023/03/03 04:19:23;;;;;;;;;55.75;42.25;;;;;7.06;54.67;101677.59;5117560;27;45711;-73
2023/03/03 04:21:50;;;;;;;;;61.00;42.00;;;;;7.00;54.62;101682.53;5119926;27;45897;-73
2023/03/03 04:24:15;;;;;;;;;53.25;43.00;;;;;6.87;54.44;101662.34;5118905;27;45025;-72
2023/03/03 04:26:41;;;;;;;;;50.75;41.50;;;;;6.86;54.75;101665.81;5110512;27;45001;-71
2023/03/03 04:29:06;;;;;;;;;55.75;43.50;;;;;6.95;54.75;101684.03;5117069;27;45363;-71
2023/03/03 04:31:32;;;;;;;;;59.25;41.00;;;;;6.95;55.19;101692.91;5112248;27;45317;-72
2023/03/03 04:33:57;;;;;;;;;56.75;42.00;;;;;6.92;54.63;101700.69;5118409;27;44961;-72
2023/03/03 04:36:23;;;;;;;;;53.00;41.75;;;;;6.90;55.17;101696.16;5096856;27;45164;-72
2023/03/03 04:38:49;;;;;;;;;58.50;40.00;;;;;6.90;55.31;101693.50;5114501;27;45202;-71
2023/03/03 04:41:15;;;;;;;;;58.00;41.50;;;;;6.80;55.52;101690.31;5121774;27;45060;-71
2023/03/03 04:43:40;;;;;;;;;57.00;41.25;;;;;6.77;55.74;101695.44;5119272;27;45205;-72
2023/03/03 04:46:05;;;;;;;;;56.75;41.25;;;;;6.76;55.89;101693.59;5121251;27;45213;-71
2023/03/03 04:48:31;;;;;;;;;58.75;41.00;;;;;6.76;55.80;101690.94;5120856;27;45161;-71
2023/03/03 04:50:56;;;;;;;;;52.75;40.75;;;;;6.77;56.17;101690.13;5120825;27;45138;-73
2023/03/03 04:53:22;;;;;;;;;61.75;46.25;;;;;6.62;55.89;101678.63;5119233;27;45076;-71
2023/03/03 04:55:51;;;;;;;;;56.75;42.00;;;;;6.69;56.29;101698.50;5116409;27;45019;-72
2023/03/03 04:58:18;;;;;;;;;53.00;39.50;;;;;6.69;56.34;101702.06;5115173;27;45130;-72
2023/03/03 05:00:44;;;;;;;;;53.50;39.50;;;;;6.67;56.35;101695.75;5121712;27;45141;-72
2023/03/03 05:03:11;;;;;;;;;56.75;43.25;;;;;6.63;56.25;101686.69;5127770;27;44961;-73
2023/03/03 05:05:36;;;;;;;;;62.25;44.75;;;;;6.60;56.54;101697.13;5120346;27;45141;-72
2023/03/03 05:08:02;;;;;;;;;60.75;43.50;;;;;6.52;57.01;101695.78;5115536;27;46612;-72
2023/03/03 05:10:27;;;;;;;;;56.50;45.00;;;;;6.43;56.60;101701.47;5120218;27;45190;-72
2023/03/03 05:12:52;;;;;;;;;58.75;45.00;;;;;6.46;57.15;101698.97;5126934;27;45766;-71
2023/03/03 05:15:18;;;;;;;;;58.75;42.25;;;;;6.48;56.67;101699.06;5114623;27;45393;-70
2023/03/03 05:17:43;;;;;;;;;58.00;46.00;;;;;6.48;56.90;101700.81;5114354;27;45711;-72
2023/03/03 05:20:10;;;;;;;;;52.00;42.25;;;;;6.44;57.08;101694.41;5117900;27;46123;-72
2023/03/03 05:22:35;;;;;;;;;67.75;44.50;;;;;6.50;57.09;101707.13;5119965;27;45029;-72
2023/03/03 05:25:00;;;;;;;;;54.75;45.25;;;;;6.50;56.86;101707.13;5119138;27;44982;-72
2023/03/03 05:27:25;;;;;;;;;49.50;40.75;;;;;6.43;56.87;101697.88;5109319;27;46071;-73
2023/03/03 05:29:51;;;;;;;;;53.25;45.00;;;;;6.34;56.89;101669.06;5119750;27;45116;-72
2023/03/03 05:32:16;;;;;;;;;53.00;38.50;;;;;6.50;56.90;101699.16;5102117;27;44995;-72
2023/03/03 05:34:42;;;;;;;;;58.25;42.50;;;;;6.50;56.95;101693.84;5120756;27;44940;-72
2023/03/03 05:37:07;;;;;;;;;55.75;41.75;;;;;6.46;57.06;101692.75;5125670;27;45490;-72
2023/03/03 05:39:33;;;;;;;;;57.75;42.25;;;;;6.51;56.67;101701.00;5121781;27;45218;-72
2023/03/03 05:41:59;;;;;;;;;52.25;42.50;;;;;6.51;56.81;101699.25;5114308;27;45104;-71
2023/03/03 05:44:25;;;;;;;;;55.50;43.50;;;;;6.50;57.00;101700.09;5122578;27;45003;-71
2023/03/03 05:46:50;;;;;;;;;61.00;46.75;;;;;6.46;56.84;101696.31;5115409;27;46425;-72
2023/03/03 05:49:16;;;;;;;;;50.25;40.00;;;;;6.46;56.70;101690.09;5113756;27;45147;-72
2023/03/03 05:51:42;;;;;;;;;56.25;43.50;;;;;6.40;57.29;101688.03;5121719;27;45030;-72
2023/03/03 05:54:07;;;;;;;;;52.00;42.75;;;;;6.43;57.08;101709.44;5123178;27;45016;-71
2023/03/03 05:56:33;;;;;;;;;60.00;43.00;;;;;6.40;57.24;101706.59;5107007;27;45890;-71
2023/03/03 05:58:58;;;;;;;;;53.00;42.00;;;;;6.35;57.18;101705.41;5117195;27;45196;-70
2023/03/03 06:01:23;;;;;;;;;58.00;47.25;;;;;6.33;57.36;101703.47;5117908;27;45111;-72
2023/03/03 06:03:48;;;;;;;;;56.50;45.00;;;;;6.30;57.08;101701.56;5121300;27;45169;-72
2023/03/03 06:06:15;;;;;;;;;51.25;39.00;;;;;6.31;57.45;101708.69;5123661;27;45352;-72
2023/03/03 06:08:41;;;;;;;;;55.25;43.25;;;;;6.28;57.29;101709.41;5114402;27;44878;-72
2023/03/03 06:11:06;;;;;;;;;55.25;44.50;;;;;6.25;57.56;101703.03;5120229;27;45102;-72
2023/03/03 06:13:31;;;;;;;;;51.75;42.50;;;;;6.20;57.84;101702.78;5123290;27;45000;-72
2023/03/03 06:15:57;;;;;;;;;57.75;42.25;;;;;6.30;57.65;101714.81;5116962;27;45725;-72
2023/03/03 06:18:22;;;;;;;;;57.50;43.00;;;;;6.31;57.11;101710.44;5107074;27;47575;-72
2023/03/03 06:20:52;;;;;;;;;57.00;45.50;;;;;6.28;57.32;101709.41;5104408;27;45280;-73
2023/03/03 06:23:17;;;;;;;;;58.25;46.25;;;;;6.13;57.58;101684.63;5123617;27;45151;-72
2023/03/03 06:25:43;;;;;;;;;65.25;47.00;;;;;6.24;57.74;101709.19;5101901;27;46552;-73
2023/03/03 06:28:08;;;;;;;;;61.50;43.25;;;;;6.18;57.65;101708.81;5118802;27;45193;-72
2023/03/03 06:30:34;;;;;;;;;68.25;48.00;;;;;6.12;57.38;101712.03;5114480;27;45421;-73
2023/03/03 06:32:59;;;;;;;;;59.75;47.25;;;;;6.15;58.40;101736.06;5116005;27;45281;-73
2023/03/03 06:35:24;;;;;;;;;59.75;45.25;;;;;6.09;58.02;101735.72;5118915;27;45854;-71
2023/03/03 06:37:50;;;;;;;;;63.75;49.00;;;;;6.14;58.21;101747.50;5118708;27;54287;-73
2023/03/03 06:40:15;;;;;;;;;62.50;44.75;;;;;6.07;57.84;101729.38;5119367;27;45511;-72
2023/03/03 06:42:41;;;;;;;;;67.00;49.75;;;;;6.01;58.10;101723.72;5121254;27;45582;-72
2023/03/03 06:45:07;;;;;;;;;68.75;49.75;;;;;6.14;57.73;101751.88;5107429;27;47517;-73
2023/03/03 06:47:32;;;;;;;;;65.75;49.25;;;;;6.19;57.97;101756.66;5117439;27;45012;-72
2023/03/03 06:49:58;;;;;;;;;66.25;50.25;;;;;6.17;57.79;101760.03;5097053;27;45027;-72
2023/03/03 06:52:25;;;;;;;;;63.50;45.25;;;;;6.14;58.02;101759.84;5113337;27;45018;-72
2023/03/03 06:54:57;;;;;;;;;57.50;45.50;;;;;6.16;57.99;101760.88;5116015;27;45214;-72
2023/03/03 06:57:31;;;;;;;;;64.75;45.50;;;;;6.24;57.66;101770.22;5115524;27;45162;-70
2023/03/03 07:00:11;;;;;;;;;64.75;49.50;;;;;6.17;57.65;101758.31;5118391;27;45155;-72
2023/03/03 07:02:36;;;;;;;;;69.25;52.00;;;;;6.19;57.61;101771.66;5115721;27;45166;-71
2023/03/03 07:05:09;;;;;;;;;68.00;52.50;;;;;6.21;58.07;101775.31;5116421;27;46139;-72
2023/03/03 07:07:34;;;;;;;;;72.00;53.25;;;;;6.14;57.52;101770.44;5115522;27;45058;-72
2023/03/03 07:10:00;;;;;;;;;64.75;47.50;;;;;5.92;57.51;101726.66;5119928;27;45350;-72
2023/03/03 07:12:29;;;;;;;;;69.00;51.75;;;;;6.33;58.16;101791.06;5099070;27;45104;-73
2023/03/03 07:15:19;;;;;;;;;76.75;55.00;;;;;6.38;57.88;101800.22;5112479;27;46322;-72
2023/03/03 07:17:47;;;;;;;;;69.75;52.50;;;;;6.41;57.59;101800.41;5108468;27;45254;-74
2023/03/03 07:20:22;;;;;;;;;65.00;48.75;;;;;6.44;57.30;101809.47;5097142;27;45162;-72
2023/03/03 07:22:47;;;;;;;;;55.25;46.50;;;;;6.34;57.33;101787.59;5115647;27;45423;-72
2023/03/03 07:25:36;;;;;;;;;65.00;45.00;;;;;6.43;57.71;101804.06;5121170;27;46169;-72
2023/03/03 07:28:23;;;;;;;;;68.00;51.75;;;;;6.46;57.07;101799.84;5111298;27;46109;-72
2023/03/03 07:30:49;;;;;;;;;77.50;56.25;;;;;6.52;57.08;101809.03;5113584;27;44905;-71
2023/03/03 07:33:27;;;;;;;;;64.75;51.50;;;;;6.53;57.26;101805.53;5116668;27;45327;-70
2023/03/03 07:35:55;;;;;;;;;61.50;49.00;;;;;6.54;57.20;101810.94;5097506;27;47156;-70
2023/03/03 07:38:30;;;;;;;;;64.50;50.75;;;;;6.51;57.03;101799.22;5117335;27;45246;-69
2023/03/03 07:40:59;;;;;;;;;65.75;47.00;;;;;6.55;56.92;101815.44;5099467;27;45491;-71
2023/03/03 07:43:36;;;;;;;;;68.25;51.25;;;;;6.57;57.11;101818.19;5115220;27;45060;-72
2023/03/03 07:46:29;;;;;;;;;66.25;49.00;;;;;6.54;56.95;101823.31;5112227;27;45396;-71
2023/03/03 07:48:57;;;;;;;;;69.75;46.25;;;;;6.53;56.85;101832.09;5110268;27;47006;-72
2023/03/03 07:51:38;;;;;;;;;73.25;54.75;;;;;6.56;57.15;101829.63;5085587;27;45498;-72
2023/03/03 07:54:28;;;;;;;;;64.25;47.00;;;;;6.59;56.94;101836.03;5113317;27;45007;-71
2023/03/03 07:57:36;;;;;;;;;74.75;54.75;;;;;6.54;56.86;101833.94;5110837;27;45117;-70
2023/03/03 08:00:13;;;;;;;;;61.25;47.50;;;;;6.54;57.06;101839.25;5048814;28;46458;-72
2023/03/03 08:02:53;;;;;;;;;71.75;50.75;;;;;6.58;57.03;101852.78;5048383;28;45479;-71
2023/03/03 08:05:27;;;;;;;;;66.50;51.50;;;;;6.58;57.04;101849.19;5073096;27;45397;-71
2023/03/03 08:08:00;;;;;;;;;73.75;51.75;;;;;6.59;57.07;101845.72;5102702;27;47299;-72
2023/03/03 08:10:35;;;;;;;;;68.00;51.75;;;;;6.63;57.35;101851.31;5113682;27;45274;-72
2023/03/03 08:13:07;;;;;;;;;63.50;45.25;;;;;6.67;57.09;101849.75;5122636;27;45207;-72
2023/03/03 08:15:36;;;;;;;;;67.50;51.25;;;;;6.72;56.41;101853.59;5123439;27;45162;-71
2023/03/03 08:18:01;;;;;;;;;73.00;54.00;;;;;6.66;56.17;101833.75;5115048;27;46164;-72
2023/03/03 08:20:43;;;;;;;;;70.75;53.25;;;;;6.81;56.31;101856.81;5119688;27;45169;-71
2023/03/03 08:23:08;;;;;;;;;83.75;62.00;;;;;6.85;56.35;101849.00;5123033;27;45573;-71
2023/03/03 08:25:34;;;;;;;;;73.00;56.25;;;;;6.85;56.86;101847.28;5123971;27;44929;-71
2023/03/03 08:27:59;;;;;;;;;72.00;55.00;;;;;6.94;56.12;101857.53;5117533;27;46825;-71
2023/03/03 08:30:24;;;;;;;;;62.25;48.25;;;;;6.96;56.10;101854.16;5117875;27;45186;-70
2023/03/03 08:32:50;;;;;;;;;68.25;52.00;;;;;7.03;55.70;101860.75;5123022;27;45135;-70
2023/03/03 08:35:15;;;;;;;;;68.25;52.00;;;;;7.06;55.34;101866.25;5126273;27;45009;-69
2023/03/03 08:37:40;;;;;;;;;69.75;53.25;;;;;7.03;55.67;101866.06;5118322;27;46407;-70
2023/03/03 08:40:07;;;;;;;;;64.75;51.00;;;;;6.96;55.78;101853.22;5118780;27;50084;-71
2023/03/03 08:42:32;;;;;;;;;73.00;53.75;;;;;7.06;55.45;101860.94;5107099;27;45386;-68
2023/03/03 08:44:57;;;;;;;;;76.00;56.25;;;;;7.11;55.32;101861.16;5115101;27;45226;-71
2023/03/03 08:47:23;;;;;;;;;70.25;54.50;;;;;7.06;55.23;101870.63;5100675;27;46930;-71
2023/03/03 08:49:48;;;;;;;;;58.00;48.25;;;;;7.03;55.66;101854.50;5096467;27;45500;-69
2023/03/03 08:52:13;;;;;;;;;71.00;53.00;;;;;7.09;55.06;101860.16;5100821;27;45655;-69
2023/03/03 08:54:39;;;;;;;;;63.00;50.25;;;;;7.06;55.24;101852.00;5097038;27;45740;-69
2023/03/03 08:57:04;;;;;;;;;67.25;49.00;;;;;7.19;54.97;101868.78;5099450;27;50978;-72
2023/03/03 08:59:29;;;;;;;;;64.75;52.00;;;;;7.28;54.66;101878.13;5097923;27;45470;-70
2023/03/03 09:01:55;;;;;;;;;63.75;47.75;;;;;7.27;54.26;101870.97;5099198;27;45575;-72
2023/03/03 09:04:20;;;;;;;;;61.25;46.25;;;;;7.27;54.22;101887.81;5102087;27;45481;-70
2023/03/03 09:06:46;;;;;;;;;67.00;51.00;;;;;7.18;54.63;101877.56;5105022;27;46574;-69
2023/03/03 09:09:11;;;;;;;;;64.25;48.00;;;;;7.16;54.71;101875.63;5096125;27;45446;-71
2023/03/03 09:11:37;;;;;;;;;63.50;46.50;;;;;7.09;54.55;101870.81;5096949;27;44850;-72
2023/03/03 09:14:10;;;;;;;;;66.50;51.00;;;;;7.16;54.47;101873.91;5088464;27;45331;-71
2023/03/03 09:16:38;;;;;;;;;64.25;49.50;;;;;7.04;54.47;101843.94;5100266;27;46159;-71
2023/03/03 09:19:33;;;;;;;;;67.50;50.75;;;;;7.27;54.16;101870.97;5104281;27;46536;-72
2023/03/03 09:22:14;;;;;;;;;68.75;51.75;;;;;7.22;54.44;101883.06;5097607;27;45543;-73
2023/03/03 09:24:41;;;;;;;;;67.25;50.75;;;;;7.16;54.02;101880.94;5097696;27;45580;-69
2023/03/03 09:27:18;;;;;;;;;63.00;48.25;;;;;7.21;54.33;101895.47;5099784;27;45439;-70
2023/03/03 09:29:44;;;;;;;;;59.75;47.50;;;;;7.24;54.26;101879.66;5095068;27;45421;-71
2023/03/03 09:32:26;;;;;;;;;71.75;51.00;;;;;7.22;53.69;101856.50;5102961;27;45831;-70
2023/03/03 09:34:51;;;;;;;;;60.75;48.00;;;;;7.49;54.03;101886.38;5095855;27;45697;-70
2023/03/03 09:37:27;;;;;;;;;64.75;49.50;;;;;7.62;53.67;101888.00;5100865;27;45612;-71
2023/03/03 09:39:56;;;;;;;;;58.75;44.00;;;;;7.68;52.60;101888.38;5095694;27;45266;-71
2023/03/03 09:42:29;;;;;;;;;69.75;54.75;;;;;7.71;53.21;101884.13;5102784;27;45594;-72
2023/03/03 09:45:01;;;;;;;;;62.00;46.50;;;;;7.67;52.62;101886.53;5096569;27;46809;-69
2023/03/03 09:47:41;;;;;;;;;68.00;48.00;;;;;7.66;52.43;101898.00;5089298;27;47177;-71
2023/03/03 09:50:29;;;;;;;;;66.00;50.00;;;;;7.75;52.09;101896.78;5103492;27;45458;-68
2023/03/03 09:53:02;;;;;;;;;69.75;51.75;;;;;7.74;51.74;101886.97;5091720;27;45383;-71
2023/03/03 09:55:43;;;;;;;;;64.25;48.25;;;;;7.77;51.60;101880.91;5098546;27;45821;-70
2023/03/03 09:58:11;;;;;;;;;62.00;49.50;;;;;7.78;52.64;101890.69;5101588;27;45372;-70
2023/03/03 10:00:54;;;;;;;;;65.00;49.00;;;;;7.63;52.16;101882.78;5101835;27;45431;-71
2023/03/03 10:03:50;;;;;;;;;66.25;50.75;;;;;7.68;52.91;101904.31;5096992;27;45435;-72
2023/03/03 10:06:32;;;;;;;;;60.75;45.75;;;;;7.65;52.64;101909.47;5110908;27;46246;-69
2023/03/03 10:09:22;;;;;;;;;54.75;44.75;;;;;7.64;52.36;101903.25;5120299;27;45852;-70
2023/03/03 10:11:56;;;;;;;;;58.75;45.75;;;;;7.73;52.34;101905.50;5117066;27;45188;-70
2023/03/03 10:14:29;;;;;;;;;96.25;79.25;;;;;7.76;52.19;101884.38;5116682;27;45570;-68
2023/03/03 10:17:19;;;;;;;;;61.50;47.50;;;;;8.01;51.21;101915.94;5108716;27;46229;-71
2023/03/03 10:19:45;;;;;;;;;67.00;50.25;;;;;8.20;51.67;101912.56;5099108;27;45559;-70
2023/03/03 10:22:25;;;;;;;;;65.50;52.00;;;;;8.71;50.08;101922.38;5114758;27;45186;-70
2023/03/03 10:25:03;;;;;;;;;60.75;43.50;;;;;9.11;50.21;101920.03;5114170;27;45087;-70
2023/03/03 10:27:52;;;;;;;;;69.50;52.25;;;;;9.65;48.58;101925.41;5117526;27;45186;-70
2023/03/03 10:30:18;;;;;;;;;56.50;44.00;;;;;10.07;46.51;101920.28;5117397;27;45652;-70
2023/03/03 10:32:55;;;;;;;;;62.00;49.25;;;;;10.27;46.42;101922.97;5113336;27;45140;-71
2023/03/03 10:35:51;;;;;;;;;55.00;43.00;;;;;10.10;45.55;101900.84;5099390;27;45201;-71
2023/03/03 10:38:45;;;;;;;;;56.00;44.00;;;;;9.96;46.16;101917.13;5086344;27;45182;-72
2023/03/03 10:41:17;;;;;;;;;56.00;44.50;;;;;9.81;46.67;101915.47;5112266;27;45293;-71
2023/03/03 10:44:07;;;;;;;;;52.25;40.25;;;;;9.74;46.85;101917.81;5117429;27;45252;-71
2023/03/03 10:46:43;;;;;;;;;49.75;41.50;;;;;9.74;46.44;101917.81;5105076;27;45206;-70
2023/03/03 10:49:16;;;;;;;;;55.00;42.25;;;;;9.72;46.48;101919.50;5113365;27;45145;-69
2023/03/03 10:52:18;;;;;;;;;51.75;42.00;;;;;9.67;46.69;101899.69;5113155;27;45218;-71
2023/03/03 10:54:46;;;;;;;;;66.00;51.25;;;;;9.86;46.63;101913.91;5117793;27;46028;-71
2023/03/03 10:57:29;;;;;;;;;60.00;45.75;;;;;9.89;46.37;101914.97;5117581;27;45546;-74
2023/03/03 11:00:27;;;;;;;;;64.25;47.25;;;;;9.88;46.31;101921.16;5113098;27;45150;-70
2023/03/03 11:03:30;;;;;;;;;61.00;40.50;;;;;9.95;46.35;101911.69;5117521;27;45809;-70
2023/03/03 11:06:11;;;;;;;;;61.75;48.25;;;;;10.03;46.01;101912.97;5117786;27;45179;-72
2023/03/03 11:08:57;;;;;;;;;70.25;49.75;;;;;10.17;46.19;101920.72;5099057;27;45276;-70
2023/03/03 11:11:54;;;;;;;;;59.75;45.00;;;;;10.08;46.06;101897.16;5112645;27;45306;-71
2023/03/03 11:14:30;;;;;;;;;70.50;56.75;;;;;10.19;46.02;101903.00;5110636;27;46246;-71
2023/03/03 11:17:11;;;;;;;;;55.00;45.00;;;;;10.32;45.61;101903.66;5096900;27;45175;-72
2023/03/03 11:19:43;;;;;;;;;56.25;42.00;;;;;10.42;45.48;101902.31;5115234;27;45130;-73
2023/03/03 11:22:43;;;;;;;;;50.75;39.00;;;;;10.55;45.13;101905.56;5112995;27;45189;-72
2023/03/03 11:25:17;;;;;;;;;57.75;42.50;;;;;10.58;44.80;101892.34;5087392;27;45315;-70
2023/03/03 11:27:58;;;;;;;;;57.00;42.00;;;;;10.60;44.58;101904.91;5121929;27;44976;-70
2023/03/03 11:30:39;;;;;;;;;50.25;40.00;;;;;10.60;44.37;101886.22;5115609;27;45214;-71
2023/03/03 11:33:20;;;;;;;;;53.75;39.75;;;;;10.58;44.57;101882.56;5101329;27;45385;-68